Overton RPC :: 200A - Oak Field, TN

liberation: 2020-10-12  08:00     latitude: 35.682108     longitude: -88.771665 33 birds
# LOFT PRING MILES ARRIVAL SPEED ToWin
1 VALHALLA LOFTS IF20-VALH-0085 200.91 2020-10-12 12:34:33.502 1287.895 00:00:00
2 VALHALLA LOFTS IF20-VALH-0034 200.91 2020-10-12 12:34:34.564 1287.812 00:00:01
3 VALHALLA LOFTS IF20-VALH-0020 200.91 2020-10-12 12:34:36.615 1287.652 00:00:03
4 VALHALLA LOFTS IF20-VALH-0042 200.91 2020-10-12 12:34:38.642 1287.493 00:00:05
5 VALHALLA LOFTS IF20-VALH-0041 200.91 2020-10-12 12:34:38.748 1287.485 00:00:05
6 VALHALLA LOFTS IF20-VALH-0023 200.91 2020-10-12 12:34:45.365 1286.968 00:00:12
7 VALHALLA LOFTS IF20-VALH-0044 200.91 2020-10-12 12:34:47.227 1286.823 00:00:14
8 VALHALLA LOFTS IF20-VALH-0087 200.91 2020-10-12 12:34:47.952 1286.766 00:00:14
9 VALHALLA LOFTS IF20-VALH-0100 200.91 2020-10-12 12:34:50.096 1286.599 00:00:17
10 VALHALLA LOFTS IF20-ORP-0021 200.91 2020-10-12 12:34:51.458 1286.493 00:00:18
11 VALHALLA LOFTS IF20-VALH-0018 200.91 2020-10-12 12:35:02.365 1285.642 00:00:29
12 VALHALLA LOFTS IF20-VALH-0040 200.91 2020-10-12 12:35:21.109 1284.184 00:00:48
13 VALHALLA LOFTS IF20-VALH-0025 200.91 2020-10-12 12:35:30.250 1283.474 00:00:57
14 VALHALLA LOFTS IF20-VALH-0093 200.91 2020-10-12 12:35:35.402 1283.074 00:01:02
15 VALHALLA LOFTS IF20-VALH-0096 200.91 2020-10-12 12:35:38.360 1282.844 00:01:05
16 VALHALLA LOFTS IF20-VALH-0066 200.91 2020-10-12 12:50:51.625 1215.711 00:16:18
17 VALHALLA LOFTS IF20-ORP-0016 200.91 2020-10-12 13:16:30.956 1117.171 00:41:57
18 VALHALLA LOFTS IF20-VALH-0088 200.91 2020-10-12 13:16:31.851 1117.118 00:41:58
19 LET IT GO LOFT IF20-ORP-0106 223.954 2020-10-12 14:26:26.707 1019.961 01:20:24
20 VALHALLA LOFTS IF20-VALH-0048 200.91 2020-10-12 14:54:50.851 852.367 02:20:17
21 VALHALLA LOFTS IF20-VALH-0027 200.91 2020-10-12 14:55:20.245 851.362 02:20:47
22 LET IT GO LOFT IF20-ORP-0126 223.954 2020-10-12 16:13:23.423 798.878 03:07:20
23 LET IT GO LOFT IF20-ORP-0122 223.954 2020-10-12 16:31:24.011 770.744 03:25:21
24 LET IT GO LOFT IF20-VALH-0092 223.954 2020-10-12 16:31:40.848 770.322 03:25:38
25 VALHALLA LOFTS IF20-VALH-0098 200.91 2020-10-12 16:16:27.426 712.252 03:41:54
26 VALHALLA LOFTS IF20-VALH-0005 200.91 2020-10-12 16:16:31.820 712.146 03:41:58
27 VALHALLA LOFTS IF20-ORP-0022 200.91 2020-10-12 16:23:21.850 702.478 03:48:48
28 LET IT GO LOFT IF20-ORP-0112 223.954 2020-10-13 08:48:14.637 498.371 08:04:51
29 LET IT GO LOFT IF20-ORP-0134 223.954 2020-10-13 08:53:57.602 494.795 08:10:34
30 VALHALLA LOFTS IF20-VALH-0089 200.91 2020-10-13 11:42:52.685 366.227 11:30:58
31 VALHALLA LOFTS IF20-VALH-0097 200.91 2020-10-13 13:48:44.468 323.992 13:36:50
32 VALHALLA LOFTS IF20-VALH-0095 200.91 2020-10-13 15:24:14.833 297.922 15:12:20
VALHALLA LOFTS IF20-VALH-0019 0 0000-00-00 00:00:00.000 0.000 00:00:00